Share

Correctionville, IA (51016)

Holstein Ag Services, LLC (KIAHOLST2) Elev 1401 ft | 42.50 °N, 95.54 °W | Change Station

Current weather conditions updated 1 second ago

Scattered Clouds
Scattered Clouds
42.4 °F
Feels Like 39 °F
N
6.0
Wind Variable Wind from ENE
Gusts 8.0 mph
Sunrise 6:38 AM
Sunset 8:07 PM
Moon Waning Gibbous

Tomorrow is forecast to be Much Warmer than today.

Pressure 30.26 in
Visibility 10.0 miles
Clouds Scattered Clouds 12000 ft
Windchill 39 °F
Dew Point 29 °F
Humidity 60%
Rainfall 0.00 in
Snow Depth Not available.
UV 0 out of 16
Pollen 8.40 out of 12
Air Quality Not available.
Flu Activity Sporadic
METAR KCKP 180155Z AUTO 06005KT 10SM SCT120 06/M02 A3026 RMK AO2 T00571025

More Conditions Fewer Conditions

Pressure 30.26 in
Visibility 10.0 miles
Clouds Scattered Clouds 12000 ft
Windchill 39 °F
Dew Point 29 °F
Humidity 60%
Rainfall 0.00 in
Snow Depth Not available.
UV 0 out of 16
Pollen 8.40 out of 12
Air Quality Not available.
Flu Activity Sporadic
METAR KCKP 180155Z AUTO 06005KT 10SM SCT120 06/M02 A3026 RMK AO2 T00571025

More Conditions Fewer Conditions

10-Day Forecast

Almanac

Astronomy

Apr. 17, 2014 Rise Set
Actual Time 6:38 AM CDT 8:07 PM CDT
Civil Twilight 6:09 AM CDT 8:36 PM CDT
Nautical Twilight 5:33 AM CDT 9:12 PM CDT
Astronomical Twilight 4:56 AM CDT 9:50 PM CDT
Moon 10:56 PM CDT (4/17) 8:09 AM CDT (4/17)
Length of Visible Light 14h 27m
Length of Day
13h 28m
Tomorrow will be 2m 42s longer.
Waning Gibbous, 91% of the Moon is Illuminated
Today
Waning Gibbous
Apr 22
Last Quarter
Apr 29
New
May 6
First Quarter
May 14
Full

Today's Extremes

State Highs State Lows

Community

  • Morning Light
    Morning Light
  • New Day
    New Day
  • Lake Michigan Sunrise
    Lake Michigan Sunrise
  • sunset from izmir, narlıdere
    sunset from izmir, narlıdere
  • oregon cherry
    oregon cherry

WunderPhotos

Upload Photos

1,702,221 photos uploaded!

WunderBlogs® & News

Nearby

Snow Depth

Station Depth Elevation
No new snow has been reported.

Coastal Water Temperatures

Place Temperature
No Stations Reporting

Earthquake Activity

City Distance Mag. Time & Date
No recent earthquake activity has been reported nearby.
Minimum magnitude displayed is 2.5.

Nearby Weather Stations

Station Location Temp. Windchill Dew Point Humidity Wind Precip. Elev Updated Type
Holstein Ag Services, LLC, Holstein, IA 42.4 °F 39 °F 29 °F 60% ENE  at  6.0 mph 0.00 in / hr 1401 ft 9:10 PM CDT Rapid Fire
The Danbury Review, Danbury, IA 43.2 °F 43 °F 28 °F 54% North  at  0.0 mph 0.00 in / hr 1161 ft 9:10 PM CDT Normal
SSW Union, Kingsley, IA 44.7 °F 41 °F 28 °F 52% NE  at  6.0 mph 0.00 in / hr 1378 ft 9:00 PM CDT Normal
HADS WEST FORK DITCH AT HORNICK IA, Rodney, IA 48 °F 48 °F - - North  at  - 0.00 in / hr 1045 ft 8:00 PM CDT MADIS

Show More Stations Show Fewer Stations

What do you think?

We're not finished. Please let us know what you like, what you don't like, and what you are still missing.